Time;durP1;ratioP1;P1;durP2;ratioP2;P2;SDS_P1;SDS_P2;PMS_P1;PMS_P2;Temp;Humidity;BMP_temperature;BMP_pressure;BME280_temperature;BME280_humidity;BME280_pressure;Samples;Min_cycle;Max_cycle;Signal;HPM_P1;HPM_P2
2024/01/24 00:00:43;;;;;;;5.43;1.97;;;;;;;10.35;100.00;101107.75;4927184;29;20230;-77
2024/01/24 00:03:08;;;;;;;5.47;2.00;;;;;;;10.35;100.00;101096.53;4930991;29;20546;-76
2024/01/24 00:05:34;;;;;;;4.90;1.60;;;;;;;10.40;100.00;101097.47;4925134;29;20192;-76
2024/01/24 00:07:59;;;;;;;4.70;2.30;;;;;;;10.39;100.00;101087.97;4925616;29;20258;-78
2024/01/24 00:10:24;;;;;;;7.40;2.33;;;;;;;10.41;100.00;101080.19;4930308;29;20226;-76
2024/01/24 00:12:50;;;;;;;5.17;2.20;;;;;;;10.41;100.00;101080.19;4926793;29;20247;-76
2024/01/24 00:15:15;;;;;;;4.30;1.90;;;;;;;10.43;100.00;101057.78;4925624;29;20223;-78
2024/01/24 00:17:40;;;;;;;5.33;2.20;;;;;;;10.41;100.00;101055.19;4928606;29;20334;-77
2024/01/24 00:20:06;;;;;;;4.17;1.73;;;;;;;10.43;100.00;101047.44;4927250;29;20666;-76
2024/01/24 00:22:31;;;;;;;4.07;1.90;;;;;;;10.41;100.00;101038.78;4928678;29;20207;-76
2024/01/24 00:24:57;;;;;;;3.33;1.60;;;;;;;10.41;100.00;101046.56;4910956;29;20195;-77
2024/01/24 00:27:22;;;;;;;5.70;2.20;;;;;;;10.46;100.00;101055.22;4929035;29;20216;-78
2024/01/24 00:29:47;;;;;;;6.37;2.37;;;;;;;10.48;100.00;101058.69;4928299;29;20203;-77
2024/01/24 00:32:13;;;;;;;5.40;2.30;;;;;;;10.48;100.00;101066.44;4927652;29;20324;-77
2024/01/24 00:34:39;;;;;;;4.80;2.00;;;;;;;10.47;100.00;101062.13;4924211;29;20200;-76
2024/01/24 00:37:04;;;;;;;3.70;1.80;;;;;;;10.48;100.00;101054.34;4928302;29;20290;-76
2024/01/24 00:39:30;;;;;;;4.87;1.80;;;;;;;10.51;100.00;101045.75;4930355;29;20662;-77
2024/01/24 00:41:58;;;;;;;3.23;1.70;;;;;;;10.53;100.00;101051.78;4920994;29;20198;-77
2024/01/24 00:44:23;;;;;;;4.30;1.50;;;;;;;10.51;100.00;101050.94;4925867;29;20818;-77
2024/01/24 00:46:48;;;;;;;4.70;1.60;;;;;;;10.58;100.00;101036.28;4928365;29;20290;-77
2024/01/24 00:49:14;;;;;;;4.97;1.70;;;;;;;10.58;100.00;101037.13;4924607;29;20197;-77
2024/01/24 00:51:39;;;;;;;4.10;1.80;;;;;;;10.60;100.00;101019.00;4928223;29;20196;-76
2024/01/24 00:54:05;;;;;;;3.37;1.60;;;;;;;10.64;100.00;101023.34;4928749;29;20215;-77
2024/01/24 00:56:30;;;;;;;3.03;1.50;;;;;;;10.64;100.00;101013.88;4929726;29;20283;-77
2024/01/24 00:58:55;;;;;;;3.27;1.60;;;;;;;10.68;100.00;101012.16;4929353;29;20708;-78
2024/01/24 01:01:21;;;;;;;3.20;1.70;;;;;;;10.66;100.00;101013.84;4919329;29;20214;-77
2024/01/24 01:03:47;;;;;;;3.23;1.60;;;;;;;10.67;100.00;101008.69;4914097;29;20607;-76
2024/01/24 01:06:12;;;;;;;4.53;1.70;;;;;;;10.66;100.00;101013.84;4906958;29;20983;-76
2024/01/24 01:08:37;;;;;;;3.90;1.67;;;;;;;10.66;100.00;101008.69;4926964;29;20203;-76
2024/01/24 01:11:05;;;;;;;5.43;1.80;;;;;;;10.68;100.00;101009.56;4929735;29;20832;-77
2024/01/24 01:13:34;;;;;;;2.97;1.50;;;;;;;10.71;100.00;100996.63;4926416;29;20303;-76
2024/01/24 01:15:59;;;;;;;4.57;1.70;;;;;;;10.73;100.00;101001.78;4924151;29;20249;-77
2024/01/24 01:18:25;;;;;;;3.80;1.60;;;;;;;10.79;100.00;100994.91;4926810;29;20316;-76
2024/01/24 01:20:50;;;;;;;4.33;1.73;;;;;;;10.83;100.00;100991.47;4909108;29;20227;-77
2024/01/24 01:23:15;;;;;;;4.23;1.33;;;;;;;10.80;100.00;100990.59;4922696;29;20587;-77
2024/01/24 01:25:41;;;;;;;3.87;1.73;;;;;;;10.78;100.00;100995.75;4908352;29;20330;-77
2024/01/24 01:28:06;;;;;;;3.93;1.90;;;;;;;10.78;100.00;100997.50;4911535;29;20697;-76
2024/01/24 01:30:31;;;;;;;5.90;1.90;;;;;;;10.81;100.00;100994.91;4926361;29;20899;-76
2024/01/24 01:32:56;;;;;;;3.00;1.63;;;;;;;10.86;100.00;101010.47;4923850;29;20200;-77
2024/01/24 01:35:22;;;;;;;4.47;1.83;;;;;;;10.87;100.00;101017.38;4923088;29;20211;-77
2024/01/24 01:37:47;;;;;;;4.77;1.70;;;;;;;10.87;100.00;101032.91;4925726;29;20221;-76
2024/01/24 01:40:13;;;;;;;4.33;1.90;;;;;;;10.88;100.00;101032.88;4904519;29;20199;-77
2024/01/24 01:42:44;;;;;;;3.77;1.60;;;;;;;10.83;100.00;101040.66;4922064;29;20206;-76
2024/01/24 01:45:09;;;;;;;3.40;1.63;;;;;;;10.82;100.00;101025.09;4925074;29;20583;-76
2024/01/24 01:47:35;;;;;;;3.37;1.30;;;;;;;10.80;100.00;101013.91;4909306;29;20228;-77
2024/01/24 01:50:01;;;;;;;4.47;1.60;;;;;;;10.86;100.00;101003.53;4926978;29;20666;-77
2024/01/24 01:52:26;;;;;;;3.93;1.20;;;;;;;10.80;100.00;101027.69;4922935;29;20278;-77
2024/01/24 01:54:53;;;;;;;2.73;1.30;;;;;;;10.80;100.00;101017.34;4924693;29;20207;-77
2024/01/24 01:57:18;;;;;;;5.97;1.70;;;;;;;10.78;100.00;101013.03;4928218;29;20219;-78
2024/01/24 01:59:44;;;;;;;4.67;1.40;;;;;;;10.74;100.00;101006.09;4925202;29;20203;-77
2024/01/24 02:02:10;;;;;;;3.40;1.60;;;;;;;10.73;100.00;101009.56;4912651;29;20666;-76
2024/01/24 02:04:36;;;;;;;2.87;1.17;;;;;;;10.70;100.00;101015.59;4925877;29;20998;-78
2024/01/24 02:07:02;;;;;;;3.40;1.30;;;;;;;10.70;100.00;101007.84;4924373;29;20235;-76
2024/01/24 02:09:28;;;;;;;3.53;1.40;;;;;;;10.70;100.00;101000.06;4927401;29;20195;-77
2024/01/24 02:11:54;;;;;;;2.87;1.27;;;;;;;10.73;100.00;101000.09;4921517;29;20192;-78
2024/01/24 02:14:19;;;;;;;3.67;1.40;;;;;;;10.70;100.00;100997.47;4927570;29;20246;-78
2024/01/24 02:16:44;;;;;;;3.37;1.67;;;;;;;10.65;100.00;100996.59;4925456;29;20230;-76
2024/01/24 02:19:10;;;;;;;2.33;1.17;;;;;;;10.66;100.00;100998.31;4925864;29;20867;-76
2024/01/24 02:21:36;;;;;;;3.67;1.40;;;;;;;10.65;100.00;101001.78;4909381;29;20195;-76
2024/01/24 02:24:03;;;;;;;2.40;1.07;;;;;;;10.62;100.00;100986.22;4929229;29;20195;-77
2024/01/24 02:26:28;;;;;;;3.70;1.53;;;;;;;10.58;100.00;100993.13;4936201;29;20280;-77
2024/01/24 02:28:54;;;;;;;2.73;1.37;;;;;;;10.62;100.00;101006.94;4930553;29;21032;-81
2024/01/24 02:31:19;;;;;;;1.77;1.10;;;;;;;10.58;100.00;101006.06;4930803;29;20203;-76
2024/01/24 02:33:45;;;;;;;3.00;1.37;;;;;;;10.66;100.00;101009.53;4932244;29;20203;-77
2024/01/24 02:36:14;;;;;;;2.07;1.10;;;;;;;10.64;100.00;101008.69;4932872;29;20245;-77
2024/01/24 02:38:40;;;;;;;2.27;1.23;;;;;;;10.67;100.00;100994.88;4931349;29;20656;-77
2024/01/24 02:41:05;;;;;;;3.17;1.67;;;;;;;10.72;100.00;100992.28;4928407;29;20230;-76
2024/01/24 02:43:31;;;;;;;3.17;1.13;;;;;;;10.76;100.00;101000.06;4910230;29;20707;-77
2024/01/24 02:45:56;;;;;;;3.80;1.40;;;;;;;10.86;100.00;101015.63;4912830;29;20278;-77
2024/01/24 02:48:21;;;;;;;2.70;0.97;;;;;;;10.88;100.00;101013.91;4930196;29;20271;-77
2024/01/24 02:50:47;;;;;;;2.87;1.47;;;;;;;10.87;100.00;101000.09;4927646;29;20671;-77
2024/01/24 02:53:12;;;;;;;4.00;1.30;;;;;;;10.89;100.00;100995.78;4928498;29;20287;-77
2024/01/24 02:55:37;;;;;;;3.90;1.43;;;;;;;10.89;100.00;100985.41;4929270;29;20197;-76
2024/01/24 02:58:02;;;;;;;2.13;1.20;;;;;;;10.91;100.00;100996.66;4928290;29;20284;-76
2024/01/24 03:00:29;;;;;;;2.87;1.20;;;;;;;10.94;100.00;100993.19;4930271;29;20206;-77
2024/01/24 03:02:54;;;;;;;2.50;1.17;;;;;;;10.93;100.00;101020.81;4928892;29;20184;-76
2024/01/24 03:05:19;;;;;;;2.80;1.70;;;;;;;10.95;100.00;101018.22;4930211;29;20686;-76
2024/01/24 03:07:45;;;;;;;2.77;1.30;;;;;;;10.99;100.00;101025.16;4925788;29;20222;-79
2024/01/24 03:10:10;;;;;;;2.33;1.40;;;;;;;10.99;100.00;101032.91;4927573;29;20212;-76
2024/01/24 03:12:35;;;;;;;2.53;1.17;;;;;;;10.96;100.00;101028.59;4928724;29;20574;-76
2024/01/24 03:15:01;;;;;;;2.90;1.17;;;;;;;10.97;100.00;101030.31;4912551;29;20196;-77
2024/01/24 03:17:27;;;;;;;4.37;1.50;;;;;;;11.03;100.00;101021.69;4926031;29;20214;-77
2024/01/24 03:19:52;;;;;;;3.53;1.40;;;;;;;11.00;100.00;101011.34;4931913;29;20185;-77
2024/01/24 03:22:18;;;;;;;3.30;1.17;;;;;;;10.99;100.00;101019.97;4923082;29;20688;-77
2024/01/24 03:24:43;;;;;;;2.60;1.13;;;;;;;11.05;100.00;101017.38;4922458;29;20198;-79
2024/01/24 03:27:09;;;;;;;2.87;1.33;;;;;;;11.05;100.00;101019.94;4930031;29;20271;-76
2024/01/24 03:29:34;;;;;;;4.30;1.80;;;;;;;11.06;100.00;101021.69;4911491;29;20190;-78
2024/01/24 03:32:00;;;;;;;3.17;1.40;;;;;;;11.08;100.00;101026.88;4915224;29;20180;-76
2024/01/24 03:34:30;;;;;;;2.43;1.37;;;;;;;11.07;100.00;101013.06;4929085;29;20568;-76
2024/01/24 03:36:55;;;;;;;2.63;1.17;;;;;;;11.08;100.00;101016.53;4909840;29;20769;-77
2024/01/24 03:39:21;;;;;;;4.03;1.70;;;;;;;11.06;100.00;101013.91;4924973;29;20221;-76
2024/01/24 03:41:46;;;;;;;5.23;1.30;;;;;;;11.09;100.00;101007.88;4929031;29;20686;-77
2024/01/24 03:44:11;;;;;;;2.37;1.20;;;;;;;11.11;100.00;101007.00;4929383;29;20202;-76
2024/01/24 03:46:37;;;;;;;3.20;1.33;;;;;;;11.17;100.00;101021.69;4911377;29;20196;-77
2024/01/24 03:49:02;;;;;;;3.93;1.50;;;;;;;11.16;100.00;101022.56;4928233;29;20215;-79
2024/01/24 03:51:28;;;;;;;4.40;1.50;;;;;;;11.15;100.00;101036.38;4935193;29;20281;-76
2024/01/24 03:53:53;;;;;;;3.27;1.47;;;;;;;11.19;100.00;101029.50;4927423;29;20288;-77
2024/01/24 03:56:18;;;;;;;3.50;1.70;;;;;;;11.17;100.00;101031.22;4925326;29;20192;-77
2024/01/24 03:58:44;;;;;;;3.67;1.50;;;;;;;11.19;100.00;101032.06;4929028;29;20216;-76
2024/01/24 04:01:10;;;;;;;3.67;1.30;;;;;;;11.19;100.00;101021.72;4931261;29;20747;-77
2024/01/24 04:03:36;;;;;;;2.17;1.37;;;;;;;11.23;100.00;101038.97;4928671;29;20700;-78
2024/01/24 04:06:01;;;;;;;3.23;1.23;;;;;;;11.21;100.00;101030.31;4928290;29;20296;-76
2024/01/24 04:08:26;;;;;;;3.10;1.43;;;;;;;11.21;100.00;101028.63;4928700;29;20651;-77
2024/01/24 04:10:52;;;;;;;2.37;1.30;;;;;;;11.24;100.00;101026.03;4925058;29;20468;-78
2024/01/24 04:13:17;;;;;;;2.90;1.57;;;;;;;11.21;100.00;101035.50;4915367;29;20199;-76
2024/01/24 04:15:42;;;;;;;2.43;1.00;;;;;;;11.30;100.00;101038.13;4928058;29;20214;-77
2024/01/24 04:18:09;;;;;;;2.93;1.33;;;;;;;11.24;100.00;101023.44;4930350;29;20220;-77
2024/01/24 04:20:35;;;;;;;2.90;1.20;;;;;;;11.23;100.00;101029.47;4924519;29;20549;-77
2024/01/24 04:23:00;;;;;;;2.77;1.53;;;;;;;11.21;100.00;101032.91;4909706;29;20184;-77
2024/01/24 04:25:25;;;;;;;3.57;1.40;;;;;;;11.23;100.00;101026.00;4927458;29;20206;-75
2024/01/24 04:27:51;;;;;;;3.10;1.70;;;;;;;11.19;100.00;101014.78;4914157;29;20199;-77
2024/01/24 04:30:16;;;;;;;3.53;1.70;;;;;;;11.21;100.00;101023.44;4926524;29;20223;-78
2024/01/24 04:32:42;;;;;;;2.97;1.43;;;;;;;11.18;100.00;101018.25;4910007;29;20184;-77
2024/01/24 04:35:07;;;;;;;3.27;1.43;;;;;;;11.17;100.00;101026.88;4924745;29;20236;-76
2024/01/24 04:37:33;;;;;;;4.00;1.70;;;;;;;11.17;100.00;101024.28;4931161;29;20227;-77
2024/01/24 04:39:58;;;;;;;3.67;1.67;;;;;;;11.18;100.00;101028.59;4910490;29;20183;-78
2024/01/24 04:42:23;;;;;;;3.10;1.73;;;;;;;11.22;100.00;101013.91;4926293;29;20261;-78
2024/01/24 04:44:49;;;;;;;3.30;1.40;;;;;;;11.20;100.00;101002.69;4927536;29;20186;-77
2024/01/24 04:47:15;;;;;;;3.50;1.40;;;;;;;11.23;100.00;101005.28;4928607;29;20219;-77
2024/01/24 04:49:40;;;;;;;4.30;1.50;;;;;;;11.19;100.00;101001.84;4928432;29;20200;-77
2024/01/24 04:52:06;;;;;;;2.70;1.70;;;;;;;11.23;100.00;101000.97;4928341;29;20185;-78
2024/01/24 04:54:35;;;;;;;3.47;1.77;;;;;;;11.22;100.00;100988.88;4910862;29;20191;-77
2024/01/24 04:57:01;;;;;;;2.93;1.50;;;;;;;11.24;100.00;100994.94;4928004;29;20211;-76
2024/01/24 04:59:30;;;;;;;4.23;1.60;;;;;;;11.24;100.00;100989.75;4911058;29;20220;-76
2024/01/24 05:01:56;;;;;;;3.37;1.50;;;;;;;11.26;100.00;100988.03;4915426;29;20191;-78
2024/01/24 05:04:21;;;;;;;4.30;1.50;;;;;;;11.28;100.00;100975.91;4934121;28;20197;-77
2024/01/24 05:06:46;;;;;;;4.80;1.77;;;;;;;11.34;100.00;100984.56;4921525;29;20329;-79
2024/01/24 05:09:12;;;;;;;3.50;1.57;;;;;;;11.33;100.00;100991.47;4926568;29;20197;-77
2024/01/24 05:11:41;;;;;;;2.00;1.30;;;;;;;11.36;100.00;100975.06;4926813;29;20258;-77
2024/01/24 05:14:07;;;;;;;2.60;1.30;;;;;;;11.39;100.00;100964.69;4908014;29;20263;-78
2024/01/24 05:16:32;;;;;;;4.07;1.30;;;;;;;11.42;100.00;100977.63;4927765;29;20233;-77
2024/01/24 05:18:57;;;;;;;2.10;0.90;;;;;;;11.45;100.00;100982.81;4927071;29;20215;-77
2024/01/24 05:21:23;;;;;;;3.90;1.33;;;;;;;11.47;100.00;100969.88;4925879;29;20484;-77
2024/01/24 05:23:50;;;;;;;3.37;1.40;;;;;;;11.50;100.00;100967.25;4927132;29;20207;-78
2024/01/24 05:26:15;;;;;;;1.97;1.33;;;;;;;11.52;100.00;100961.22;4926741;29;20524;-77
2024/01/24 05:28:41;;;;;;;2.97;1.50;;;;;;;11.55;100.00;100955.16;4929959;29;20732;-79
2024/01/24 05:31:06;;;;;;;1.80;1.20;;;;;;;11.55;100.00;100958.63;4935663;29;20195;-79
2024/01/24 05:33:31;;;;;;;3.53;1.80;;;;;;;11.58;100.00;100960.31;4927812;29;20258;-79
2024/01/24 05:35:57;;;;;;;2.37;1.10;;;;;;;11.64;100.00;100969.81;4927065;29;20197;-77
2024/01/24 05:38:22;;;;;;;2.50;1.30;;;;;;;11.69;100.00;100975.88;4928630;29;20297;-77
2024/01/24 05:40:47;;;;;;;1.57;1.10;;;;;;;11.68;100.00;100961.19;4928143;29;21209;-79
2024/01/24 05:43:13;;;;;;;3.53;1.20;;;;;;;11.72;100.00;100953.38;4927799;29;20662;-77
2024/01/24 05:45:38;;;;;;;3.10;1.17;;;;;;;11.77;100.00;100958.53;4930105;29;20196;-77
2024/01/24 05:48:04;;;;;;;3.00;1.17;;;;;;;11.77;100.00;100948.16;4930463;29;20237;-78
2024/01/24 05:50:29;;;;;;;1.43;0.73;;;;;;;11.90;100.00;100938.63;4934170;29;20232;-78
2024/01/24 05:52:54;;;;;;;1.60;0.80;;;;;;;11.90;100.00;100942.06;4927437;29;20203;-77
2024/01/24 05:55:20;;;;;;;2.57;1.00;;;;;;;11.86;100.00;100921.34;4933926;29;20193;-77
2024/01/24 05:57:46;;;;;;;2.17;1.00;;;;;;;11.85;100.00;100937.78;4924546;29;20677;-76
2024/01/24 06:00:14;;;;;;;2.60;1.07;;;;;;;11.99;100.00;100943.78;4933761;29;20199;-77
2024/01/24 06:02:39;;;;;;;1.00;0.63;;;;;;;12.03;100.00;100948.09;4932518;29;20188;-77
2024/01/24 06:05:05;;;;;;;1.53;0.80;;;;;;;11.97;100.00;100937.72;4932833;29;20282;-80
2024/01/24 06:07:31;;;;;;;1.43;0.70;;;;;;;11.96;100.00;100954.16;4930574;29;20224;-78
2024/01/24 06:09:57;;;;;;;2.43;1.00;;;;;;;12.11;100.00;100961.03;4931507;29;20882;-77
2024/01/24 06:12:22;;;;;;;2.23;0.90;;;;;;;12.10;100.00;100961.06;4933731;29;21071;-77
2024/01/24 06:14:48;;;;;;;2.50;0.90;;;;;;;12.10;100.00;100969.69;4931469;29;20196;-77
2024/01/24 06:17:13;;;;;;;1.80;0.87;;;;;;;12.06;100.00;100957.59;4929204;29;20214;-77
2024/01/24 06:19:38;;;;;;;1.60;1.03;;;;;;;11.97;100.00;100963.66;4933565;29;20221;-78
2024/01/24 06:22:04;;;;;;;2.17;1.10;;;;;;;11.96;100.00;100974.91;4930762;29;20195;-77
2024/01/24 06:24:29;;;;;;;2.63;1.00;;;;;;;12.04;100.00;100969.72;4932873;29;20204;-78
2024/01/24 06:26:54;;;;;;;2.13;1.00;;;;;;;11.93;100.00;100976.66;4916611;29;20211;-78
2024/01/24 06:29:20;;;;;;;2.13;1.10;;;;;;;11.84;100.00;100977.53;4918601;29;20297;-78
2024/01/24 06:31:49;;;;;;;3.60;1.07;;;;;;;11.85;100.00;100984.44;4933537;29;20188;-79
2024/01/24 06:34:15;;;;;;;3.90;1.20;;;;;;;11.77;100.00;100989.66;4932245;29;20222;-79
2024/01/24 06:36:40;;;;;;;3.93;1.10;;;;;;;11.65;100.00;100987.94;4931818;29;20312;-78
2024/01/24 06:39:09;;;;;;;1.67;1.00;;;;;;;11.55;100.00;100987.13;4938608;29;20709;-77
2024/01/24 06:41:35;;;;;;;1.73;1.00;;;;;;;11.46;100.00;100986.28;4934676;29;20200;-78
2024/01/24 06:44:00;;;;;;;2.53;1.20;;;;;;;11.38;100.00;100992.31;4932709;29;20243;-76
2024/01/24 06:46:28;;;;;;;4.07;1.77;;;;;;;11.36;100.00;100975.06;4938181;28;20191;-78
2024/01/24 06:48:53;;;;;;;3.17;1.40;;;;;;;11.31;100.00;100995.78;4935252;29;20751;-78
2024/01/24 06:51:19;;;;;;;2.20;1.30;;;;;;;11.24;100.00;101000.13;4925390;29;20283;-77
2024/01/24 06:53:45;;;;;;;2.87;1.37;;;;;;;11.23;100.00;100980.25;4934473;29;20201;-77
2024/01/24 06:56:10;;;;;;;1.70;1.00;;;;;;;11.20;100.00;100990.63;4934147;29;20658;-78
2024/01/24 06:58:37;;;;;;;2.20;0.83;;;;;;;11.30;100.00;100991.47;4934576;29;20207;-77
2024/01/24 07:01:03;;;;;;;4.03;1.30;;;;;;;11.26;100.00;100980.25;4946827;29;20240;-77
2024/01/24 07:03:28;;;;;;;2.13;1.10;;;;;;;11.28;100.00;100975.06;4934381;29;20750;-77
2024/01/24 07:05:53;;;;;;;3.13;1.00;;;;;;;11.26;100.00;100969.00;4932265;28;20281;-78
2024/01/24 07:08:19;;;;;;;1.93;1.30;;;;;;;11.29;100.00;100967.28;4934702;29;20628;-76
2024/01/24 07:10:44;;;;;;;3.03;1.23;;;;;;;11.27;100.00;100960.38;4931374;29;20230;-77
2024/01/24 07:13:10;;;;;;;2.23;1.03;;;;;;;11.27;100.00;100970.75;4910717;29;20304;-78
2024/01/24 07:15:35;;;;;;;3.73;1.67;;;;;;;11.27;100.00;100984.53;4927925;29;20368;-76
2024/01/24 07:18:01;;;;;;;2.70;1.33;;;;;;;11.30;100.00;100986.28;4926782;29;20216;-78
2024/01/24 07:20:26;;;;;;;4.00;3.47;;;;;;;11.30;100.00;100986.28;4924451;29;20195;-77
2024/01/24 07:22:51;;;;;;;1.63;1.10;;;;;;;11.33;100.00;100981.13;4927037;29;20191;-77
2024/01/24 07:25:20;;;;;;;2.90;0.93;;;;;;;11.37;100.00;100987.16;4933282;29;20201;-77
2024/01/24 07:27:46;;;;;;;2.17;1.00;;;;;;;11.35;100.00;100979.34;4930721;29;20308;-77
2024/01/24 07:30:12;;;;;;;2.23;0.90;;;;;;;11.35;100.00;100992.31;4926118;29;20282;-78
2024/01/24 07:32:40;;;;;;;2.43;0.93;;;;;;;11.38;100.00;100988.88;4928378;29;20359;-76
2024/01/24 07:35:06;;;;;;;1.27;0.83;;;;;;;11.38;100.00;100987.13;4926526;29;20201;-78
2024/01/24 07:37:31;;;;;;;2.97;0.90;;;;;;;11.40;100.00;100976.78;4930078;29;20217;-77
2024/01/24 07:39:57;;;;;;;2.07;1.00;;;;;;;11.45;100.00;100985.41;4931889;29;20215;-78
2024/01/24 07:42:22;;;;;;;1.67;1.37;;;;;;;11.44;100.00;100986.25;4926067;29;20213;-77
2024/01/24 07:44:48;;;;;;;1.27;0.80;;;;;;;11.46;100.00;100965.53;4928679;29;20207;-76
2024/01/24 07:47:13;;;;;;;1.20;0.90;;;;;;;11.49;100.00;100970.72;4930425;29;20229;-77
2024/01/24 07:49:39;;;;;;;1.87;0.80;;;;;;;11.52;100.00;100978.47;4926758;29;20200;-77
2024/01/24 07:52:05;;;;;;;1.87;0.87;;;;;;;11.57;100.00;100964.63;4929737;29;20200;-77
2024/01/24 07:54:30;;;;;;;1.50;0.80;;;;;;;11.62;100.00;100962.06;4933284;29;20209;-77
2024/01/24 07:56:55;;;;;;;1.10;0.70;;;;;;;11.69;100.00;100994.00;4931874;29;20218;-77
2024/01/24 07:59:21;;;;;;;1.60;0.70;;;;;;;11.74;100.00;100997.44;4929832;29;20703;-76
2024/01/24 08:01:47;;;;;;;2.03;0.70;;;;;;;11.71;100.00;101010.44;4931136;29;20196;-77
2024/01/24 08:04:16;;;;;;;1.83;1.00;;;;;;;11.72;100.00;101027.72;4927249;29;20200;-77
2024/01/24 08:06:41;;;;;;;1.87;0.90;;;;;;;11.75;100.00;101012.13;4929507;29;20210;-76
2024/01/24 08:09:07;;;;;;;2.10;0.73;;;;;;;11.70;100.00;101016.50;4928929;29;20205;-77
2024/01/24 08:11:33;;;;;;;2.27;0.70;;;;;;;11.68;100.00;100990.53;4917727;29;20198;-77
2024/01/24 08:13:58;;;;;;;1.93;1.10;;;;;;;11.69;100.00;100988.84;4930485;29;20189;-78
2024/01/24 08:16:23;;;;;;;1.10;0.80;;;;;;;11.70;100.00;101003.53;4928589;29;20201;-76
2024/01/24 08:18:49;;;;;;;1.13;0.90;;;;;;;11.70;100.00;101000.94;4920977;29;20224;-78
2024/01/24 08:21:15;;;;;;;2.30;1.10;;;;;;;11.77;100.00;101015.59;4928616;29;20671;-76
2024/01/24 08:23:40;;;;;;;1.20;0.80;;;;;;;11.79;100.00;101000.91;4925565;29;20184;-76
2024/01/24 08:26:08;;;;;;;1.07;0.73;;;;;;;11.78;100.00;101011.28;4913846;29;20236;-78
2024/01/24 08:28:34;;;;;;;2.07;0.80;;;;;;;11.84;100.00;101001.75;4929135;29;20208;-77
2024/01/24 08:30:59;;;;;;;1.20;0.50;;;;;;;11.84;100.00;100999.16;4940335;29;20681;-77
2024/01/24 08:33:24;;;;;;;1.27;0.80;;;;;;;11.82;100.00;101003.50;4932458;29;20200;-76
2024/01/24 08:35:50;;;;;;;0.83;0.60;;;;;;;11.89;100.00;101004.34;4927601;29;20843;-76
2024/01/24 08:38:15;;;;;;;1.40;0.93;;;;;;;11.88;100.00;101016.41;4926405;29;20220;-76
2024/01/24 08:40:40;;;;;;;0.97;0.80;;;;;;;11.88;100.00;101000.84;4929267;29;20213;-77
2024/01/24 08:43:06;;;;;;;1.30;0.80;;;;;;;11.92;100.00;100986.19;4929103;29;20197;-78
2024/01/24 08:45:31;;;;;;;2.23;0.70;;;;;;;11.96;100.00;101008.63;4928469;29;20207;-78
2024/01/24 08:47:56;;;;;;;1.00;0.67;;;;;;;11.95;100.00;101004.28;4924838;29;20218;-77
2024/01/24 08:50:22;;;;;;;0.87;0.80;;;;;;;11.95;100.00;101003.44;4929489;29;20756;-77
2024/01/24 08:52:50;;;;;;;1.10;0.70;;;;;;;11.95;100.00;101006.03;4928698;29;20719;-78
2024/01/24 08:55:16;;;;;;;0.60;0.60;;;;;;;11.96;100.00;101003.44;4924237;29;20196;-77
2024/01/24 08:57:42;;;;;;;0.80;0.60;;;;;;;12.02;100.00;101008.63;4926592;29;20302;-76
2024/01/24 09:00:09;;;;;;;0.80;0.77;;;;;;;12.03;100.00;101019.88;4926749;29;20213;-78
2024/01/24 09:02:34;;;;;;;0.87;0.60;;;;;;;12.12;100.00;101027.63;4908541;29;20705;-76
2024/01/24 09:05:00;;;;;;;0.93;0.70;;;;;;;12.23;100.00;101029.31;4924319;29;20191;-77
2024/01/24 09:07:25;;;;;;;2.53;0.73;;;;;;;12.19;100.00;101026.72;4930491;29;20469;-77
2024/01/24 09:09:51;;;;;;;1.40;0.60;;;;;;;12.20;100.00;101040.59;4928671;29;20219;-78
2024/01/24 09:12:16;;;;;;;1.27;0.80;;;;;;;12.23;100.00;101050.09;4936865;29;20188;-77
2024/01/24 09:14:44;;;;;;;1.63;0.90;;;;;;;12.26;100.00;101071.69;4920305;29;20861;-76
2024/01/24 09:17:10;;;;;;;1.00;0.60;;;;;;;12.29;100.00;101079.47;4928383;29;20217;-77
2024/01/24 09:19:35;;;;;;;1.63;1.00;;;;;;;12.33;100.00;101069.94;4932843;29;20226;-77
2024/01/24 09:22:01;;;;;;;2.23;2.03;;;;;;;12.31;100.00;101085.53;4930666;29;20226;-77
2024/01/24 09:24:26;;;;;;;1.40;1.30;;;;;;;12.33;100.00;101088.97;4927486;28;20185;-78
2024/01/24 09:26:52;;;;;;;1.30;1.10;;;;;;;12.29;100.00;101073.44;4925916;29;20196;-78
2024/01/24 09:29:18;;;;;;;1.37;0.73;;;;;;;12.31;100.00;101076.88;4925289;29;20238;-76
2024/01/24 09:31:45;;;;;;;1.10;0.90;;;;;;;12.20;100.00;101069.13;4921245;29;20198;-77
2024/01/24 09:34:14;;;;;;;2.93;0.80;;;;;;;12.15;100.00;101086.44;4910610;29;20293;-78
2024/01/24 09:36:40;;;;;;;0.93;0.73;;;;;;;12.03;100.00;101066.56;4924657;29;20662;-78
2024/01/24 09:39:07;;;;;;;3.37;0.90;;;;;;;11.97;100.00;101066.56;4925409;29;20220;-77
2024/01/24 09:41:39;;;;;;;1.10;0.77;;;;;;;11.93;100.00;101072.63;4911916;29;20186;-78
2024/01/24 09:44:04;;;;;;;1.30;0.90;;;;;;;11.91;100.00;101090.78;4929073;29;20663;-77
2024/01/24 09:46:32;;;;;;;1.70;0.77;;;;;;;11.94;100.00;101080.41;4928319;29;20197;-77
2024/01/24 09:48:58;;;;;;;1.77;1.03;;;;;;;11.98;100.00;101087.34;4930640;29;20229;-77
2024/01/24 09:51:24;;;;;;;0.80;0.57;;;;;;;12.04;100.00;101087.34;4926494;29;20278;-78
2024/01/24 09:53:51;;;;;;;1.50;0.70;;;;;;;12.09;100.00;101089.91;4928384;29;20553;-78
2024/01/24 09:56:18;;;;;;;0.70;0.67;;;;;;;12.24;100.00;101099.41;4924885;29;20296;-77
2024/01/24 09:58:44;;;;;;;0.97;0.80;;;;;;;12.35;100.00;101099.34;4925492;29;20358;-78
2024/01/24 10:01:14;;;;;;;0.97;0.77;;;;;;;12.42;100.00;101118.34;4924598;29;20677;-77
2024/01/24 10:03:40;;;;;;;1.97;0.63;;;;;;;12.37;100.00;101081.19;4922782;29;20195;-77
2024/01/24 10:06:09;;;;;;;1.50;0.90;;;;;;;12.31;100.00;101076.88;4923099;29;20222;-78
2024/01/24 10:08:34;;;;;;;0.80;0.70;;;;;;;12.27;100.00;101127.91;4920763;29;20208;-77
2024/01/24 10:10:59;;;;;;;1.30;0.70;;;;;;;12.26;100.00;101122.75;4921791;29;20534;-79
2024/01/24 10:13:26;;;;;;;2.37;0.90;;;;;;;12.27;100.00;101121.88;4929627;29;20707;-76
2024/01/24 10:15:53;;;;;;;2.03;0.90;;;;;;;12.29;100.00;101133.13;4909788;29;20196;-78
2024/01/24 10:18:19;;;;;;;1.47;0.80;;;;;;;12.28;100.00;101131.41;4925839;29;20230;-78
2024/01/24 10:20:46;;;;;;;1.73;0.90;;;;;;;12.42;100.00;101136.53;4922827;29;20196;-79
2024/01/24 10:23:11;;;;;;;1.77;0.90;;;;;;;12.45;100.00;101160.78;4919179;29;20617;-77
2024/01/24 10:25:41;;;;;;;2.53;0.70;;;;;;;12.46;100.00;101164.22;4921630;29;20275;-77
2024/01/24 10:28:13;;;;;;;0.70;0.70;;;;;;;12.50;100.00;101181.53;4921106;29;20262;-77
2024/01/24 10:30:42;;;;;;;2.00;0.80;;;;;;;12.57;100.00;101211.78;4920507;29;20311;-78
2024/01/24 10:33:13;;;;;;;1.47;0.83;;;;;;;12.49;100.00;101219.59;4926119;29;20716;-78
2024/01/24 10:35:40;;;;;;;1.07;0.77;;;;;;;12.48;100.00;101211.81;4924498;29;20190;-75
2024/01/24 10:38:09;;;;;;;0.87;0.70;;;;;;;12.45;100.00;101215.28;4927887;29;20234;-79
2024/01/24 10:40:36;;;;;;;1.37;0.60;;;;;;;12.39;100.00;101222.22;4923089;29;20428;-78
2024/01/24 10:43:08;;;;;;;1.60;0.70;;;;;;;12.35;100.00;101213.56;4933721;29;20204;-78
2024/01/24 10:45:34;;;;;;;1.20;0.70;;;;;;;12.31;100.00;101196.28;4913865;29;20747;-77
2024/01/24 10:48:00;;;;;;;1.17;0.67;;;;;;;12.23;100.00;101209.25;4913362;29;20240;-78
2024/01/24 10:50:25;;;;;;;1.27;0.80;;;;;;;12.27;100.00;101231.72;4913558;29;20224;-79
2024/01/24 10:52:54;;;;;;;1.07;0.50;;;;;;;12.33;100.00;101233.44;4924224;29;20570;-77
2024/01/24 10:55:21;;;;;;;2.03;0.70;;;;;;;12.30;100.00;101231.75;4929485;29;20214;-77
2024/01/24 10:57:47;;;;;;;1.67;0.53;;;;;;;12.34;100.00;101238.66;4928345;29;21176;-78
2024/01/24 11:00:15;;;;;;;1.00;0.50;;;;;;;12.36;100.00;101236.06;4938002;29;20235;-78
2024/01/24 11:02:41;;;;;;;0.70;0.70;;;;;;;12.40;100.00;101242.13;4933307;29;20198;-78
2024/01/24 11:05:27;;;;;;;0.60;0.50;;;;;;;12.43;100.00;101244.69;4929709;29;20190;-78
2024/01/24 11:07:58;;;;;;;1.27;0.50;;;;;;;12.47;100.00;101238.63;4927311;29;20245;-78
2024/01/24 11:10:36;;;;;;;1.30;0.80;;;;;;;12.55;100.00;101217.84;4925982;29;20191;-77